Hallefors Airport


Codes: ESVH/
Name: Hallefors Airport
City: Hallefors
Country: Sweden
Elevation: 0 ft.

Photos at Hallefors Airport


   Photos courtesy of SpottingLog. You can add your own sightings and photos by signing up for a free trial today.



No photos found.

Weather at Hallefors Airport


Time (UTC)DescriptionTempratureWindCloud coverageVisibilityPressureHumidity
25-Jun-2024 15:00Few Clouds24°C11 mph, SW13%10000m1019hPa41%
25-Jun-2024 18:00Few Clouds22°C7 mph, SW16%10000m1018hPa44%
25-Jun-2024 21:00Clear Sky14°C4 mph, SW6%10000m1017hPa67%
26-Jun-2024 00:00Clear Sky13°C2 mph, SW7%10000m1017hPa82%
26-Jun-2024 03:00Clear Sky12°C4 mph, SW4%10000m1017hPa79%
26-Jun-2024 06:00Clear Sky18°C7 mph, SW5%10000m1017hPa54%
26-Jun-2024 09:00Clear Sky23°C9 mph, SW0%10000m1016hPa40%
26-Jun-2024 12:00Clear Sky25°C9 mph, SW0%10000m1015hPa37%
26-Jun-2024 15:00Clear Sky25°C7 mph, SW0%10000m1015hPa39%
26-Jun-2024 18:00Clear Sky23°C7 mph, S0%10000m1014hPa55%
26-Jun-2024 21:00Clear Sky16°C2 mph, SW1%10000m1015hPa77%
27-Jun-2024 00:00Clear Sky15°C0 mph, SW0%10000m1015hPa81%
27-Jun-2024 03:00Clear Sky15°C2 mph, SE1%10000m1015hPa79%
27-Jun-2024 06:00Clear Sky22°C2 mph, SE1%10000m1014hPa54%
27-Jun-2024 09:00Clear Sky26°C7 mph, S0%10000m1013hPa41%
27-Jun-2024 12:00Clear Sky28°C9 mph, S0%10000m1012hPa36%
27-Jun-2024 15:00Few Clouds28°C9 mph, S21%10000m1011hPa36%
27-Jun-2024 18:00Scattered Clouds23°C7 mph, S45%10000m1010hPa60%
27-Jun-2024 21:00Broken Clouds19°C7 mph, SE57%10000m1011hPa76%
28-Jun-2024 00:00Broken Clouds19°C7 mph, SE62%10000m1009hPa73%
28-Jun-2024 03:00Scattered Clouds16°C4 mph, SE45%10000m1008hPa89%
28-Jun-2024 06:00Broken Clouds20°C11 mph, SE56%10000m1006hPa66%
28-Jun-2024 09:00Light Rain20°C13 mph, SE100%10000m1005hPa84%
28-Jun-2024 12:00Moderate Rain18°C9 mph, S100%5286m1004hPa96%
28-Jun-2024 15:00Light Rain17°C13 mph, SW100%10000m1005hPa91%
28-Jun-2024 18:00Light Rain18°C11 mph, SW81%10000m1005hPa66%
28-Jun-2024 21:00Clear Sky13°C11 mph, SW0%10000m1007hPa77%
29-Jun-2024 00:00Scattered Clouds13°C13 mph, SW32%10000m1008hPa78%
29-Jun-2024 03:00Overcast Clouds12°C13 mph, SW89%10000m1009hPa83%
29-Jun-2024 06:00Broken Clouds14°C13 mph, SW74%10000m1010hPa63%
29-Jun-2024 09:00Overcast Clouds18°C13 mph, SW97%10000m1011hPa49%
29-Jun-2024 12:00Overcast Clouds18°C13 mph, SW99%10000m1012hPa51%
29-Jun-2024 15:00Overcast Clouds18°C11 mph, SW97%10000m1012hPa54%
29-Jun-2024 18:00Overcast Clouds17°C9 mph, SW99%10000m1012hPa58%
29-Jun-2024 21:00Broken Clouds12°C2 mph, SW76%10000m1012hPa80%
30-Jun-2024 00:00Overcast Clouds11°C2 mph, S85%10000m1012hPa83%
30-Jun-2024 03:00Overcast Clouds12°C2 mph, E93%10000m1011hPa83%
30-Jun-2024 06:00Overcast Clouds14°C4 mph, E96%10000m1010hPa72%
30-Jun-2024 09:00Light Rain14°C9 mph, SE100%9050m1008hPa87%
30-Jun-2024 12:00Moderate Rain13°C13 mph, E100%4261m1005hPa96%